Time;durP1;ratioP1;P1;durP2;ratioP2;P2;SDS_P1;SDS_P2;PMS_P1;PMS_P2;Temp;Humidity;BMP_temperature;BMP_pressure;BME280_temperature;BME280_humidity;BME280_pressure;Samples;Min_cycle;Max_cycle;Signal;HPM_P1;HPM_P2
2024/01/02 00:00:29;;;;;;;6.03;2.25;;;;;;;6.21;100.00;99812.34;10474359;28;20139;-80
2024/01/02 00:05:30;;;;;;;9.65;1.70;;;;;;;6.12;100.00;99810.19;10481134;28;20087;-81
2024/01/02 00:10:30;;;;;;;20.58;2.30;;;;;;;6.10;100.00;99805.75;10480117;28;20124;-81
2024/01/02 00:15:31;;;;;;;7.50;2.88;;;;;;;6.01;100.00;99798.38;10488034;28;20583;-82
2024/01/02 00:20:31;;;;;;;8.15;2.20;;;;;;;5.98;100.00;99790.41;10479586;28;20032;-81
2024/01/02 00:25:32;;;;;;;9.88;2.78;;;;;;;5.94;100.00;99788.47;10451415;28;20077;-82
2024/01/02 00:30:34;;;;;;;6.93;2.13;;;;;;;5.92;100.00;99787.50;10411242;28;20132;-80
2024/01/02 00:35:34;;;;;;;5.93;1.52;;;;;;;5.87;100.00;99757.00;10423599;28;20520;-81
2024/01/02 00:40:35;;;;;;;3.88;1.35;;;;;;;5.87;100.00;99749.22;10456162;28;20147;-80
2024/01/02 00:45:35;;;;;;;2.83;1.63;;;;;;;5.85;100.00;99745.66;10452044;28;20392;-81
2024/01/02 00:50:36;;;;;;;4.78;1.77;;;;;;;5.85;100.00;99729.19;10419463;28;20047;-81
2024/01/02 00:55:36;;;;;;;3.03;1.30;;;;;;;5.81;100.00;99702.19;10438140;28;20048;-80
2024/01/02 01:00:37;;;;;;;4.32;1.42;;;;;;;5.80;100.00;99676.16;10448543;28;20036;-80
2024/01/02 01:05:37;;;;;;;4.45;1.33;;;;;;;5.76;100.00;99633.56;10452382;28;20087;-81
2024/01/02 01:10:38;;;;;;;8.88;1.17;;;;;;;5.73;100.00;99607.44;10467181;28;20111;-80
2024/01/02 01:15:39;;;;;;;2.35;1.35;;;;;;;5.70;100.00;99597.81;10473311;28;20124;-81
2024/01/02 01:20:39;;;;;;;1.87;0.63;;;;;;;5.69;100.00;99571.78;10461266;28;20477;-82
2024/01/02 01:25:40;;;;;;;4.70;1.35;;;;;;;5.64;100.00;99558.59;10463202;28;20043;-81
2024/01/02 01:30:40;;;;;;;3.58;0.60;;;;;;;5.64;100.00;99521.34;10472574;28;20045;-81
2024/01/02 01:35:41;;;;;;;1.48;0.80;;;;;;;5.57;100.00;99513.28;10457881;28;20060;-81
2024/01/02 01:40:42;;;;;;;3.70;1.15;;;;;;;5.62;100.00;99490.16;10459392;28;20036;-80
2024/01/02 01:45:42;;;;;;;2.58;0.88;;;;;;;5.60;100.00;99471.03;10448423;28;20045;-82
2024/01/02 01:50:43;;;;;;;1.83;0.73;;;;;;;5.55;100.00;99455.22;10463062;28;20484;-82
2024/01/02 01:55:43;;;;;;;1.02;0.65;;;;;;;5.56;100.00;99435.38;10460618;28;20048;-81
2024/01/02 02:00:44;;;;;;;2.28;0.50;;;;;;;5.52;100.00;99407.50;10459004;28;20047;-81
2024/01/02 02:05:45;;;;;;;0.20;0.20;;;;;;;5.52;100.00;99389.34;10457194;28;20504;-82
2024/01/02 02:10:45;;;;;;;1.20;0.57;;;;;;;5.50;100.00;99365.91;10431402;28;20044;-79
2024/01/02 02:15:48;;;;;;;1.33;0.57;;;;;;;5.46;100.00;99387.34;10457362;28;20386;-80
2024/01/02 02:20:49;;;;;;;2.00;0.90;;;;;;;5.50;100.00;99368.50;10459161;28;20487;-79
2024/01/02 02:25:50;;;;;;;0.68;0.30;;;;;;;5.47;100.00;99354.50;10442388;28;20034;-81
2024/01/02 02:30:50;;;;;;;0.40;0.30;;;;;;;5.45;100.00;99336.25;10435216;28;20095;-83
2024/01/02 02:35:51;;;;;;;0.45;0.17;;;;;;;5.47;100.00;99321.66;10439033;28;20040;-83
2024/01/02 02:40:51;;;;;;;0.95;0.40;;;;;;;5.50;100.00;99321.78;10438719;28;20116;-82
2024/01/02 02:45:52;;;;;;;2.42;0.98;;;;;;;5.52;100.00;99301.97;10440369;28;20134;-82
2024/01/02 02:50:52;;;;;;;0.40;0.30;;;;;;;5.60;100.00;99276.38;10463879;28;20552;-83
2024/01/02 02:55:53;;;;;;;5.63;0.50;;;;;;;5.65;100.00;99247.97;10479741;28;20135;-83
2024/01/02 03:00:53;;;;;;;0.08;0.08;;;;;;;5.75;100.00;99238.88;10481896;28;20128;-83
2024/01/02 03:05:54;;;;;;;0.47;0.13;;;;;;;5.80;100.00;99224.38;10430075;28;20536;-83
2024/01/02 03:10:59;;;;;;;0.57;0.30;;;;;;;5.83;100.00;99212.38;10424350;28;20076;-84
2024/01/02 03:16:00;;;;;;;0.20;0.15;;;;;;;5.92;100.00;99200.59;10419812;28;20416;-84
2024/01/02 03:21:00;;;;;;;0.47;0.20;;;;;;;5.98;100.00;99180.97;10422706;28;20132;-84
2024/01/02 03:26:01;;;;;;;0.47;0.15;;;;;;;6.02;100.00;99156.91;10435328;28;20515;-83
2024/01/02 03:31:03;;;;;;;0.80;0.40;;;;;;;6.08;100.00;99145.00;10403874;28;20122;-83
2024/01/02 03:36:04;;;;;;;1.33;0.35;;;;;;;6.14;100.00;99106.25;10404307;28;20041;-83
2024/01/02 03:41:04;;;;;;;0.10;0.10;;;;;;;6.21;100.00;99082.28;10482098;28;20040;-83
2024/01/02 03:46:05;;;;;;;0.50;0.45;;;;;;;6.28;100.00;99078.16;10447173;28;20099;-83
2024/01/02 03:51:06;;;;;;;0.57;0.17;;;;;;;6.35;100.00;99064.56;10444748;28;20041;-84
2024/01/02 03:56:06;;;;;;;0.10;0.10;;;;;;;6.42;100.00;99048.38;10447853;28;20057;-83
2024/01/02 04:01:07;;;;;;;2.28;0.40;;;;;;;6.47;100.00;99044.22;10465345;28;20123;-84
2024/01/02 04:06:07;;;;;;;0.30;0.28;;;;;;;6.52;100.00;99014.91;10486920;28;20033;-83
2024/01/02 04:11:08;;;;;;;1.17;0.65;;;;;;;6.64;100.00;99035.25;10475869;28;20061;-84
2024/01/02 04:16:08;;;;;;;0.60;0.20;;;;;;;6.72;100.00;99019.06;10447504;28;20119;-84
2024/01/02 04:21:09;;;;;;;0.20;0.20;;;;;;;6.80;100.00;99011.53;10440299;28;20116;-83
2024/01/02 04:26:09;;;;;;;0.60;0.17;;;;;;;6.92;100.00;99007.56;10477248;28;20119;-84
2024/01/02 04:31:10;;;;;;;0.30;0.10;;;;;;;6.93;100.00;99002.38;10430782;28;20465;-83
2024/01/02 04:36:10;;;;;;;0.10;0.10;;;;;;;7.03;100.00;98996.66;10430810;28;20131;-84
2024/01/02 04:41:13;;;;;;;0.43;0.38;;;;;;;7.09;100.00;98988.16;10444770;28;20091;-84
2024/01/02 04:46:13;;;;;;;;;;;;;;;7.22;100.00;98971.22;10443288;28;20052;-85
2024/01/02 04:51:13;;;;;;;0.65;0.00;;;;;;;7.25;100.00;98947.88;10443675;28;19921;-80
2024/01/02 04:56:14;;;;;;;0.20;0.13;;;;;;;7.35;100.00;98978.56;10426578;28;20080;-85
2024/01/02 05:01:14;;;;;;;0.10;0.10;;;;;;;7.37;100.00;98986.41;10458543;28;20392;-84
2024/01/02 05:06:15;;;;;;;0.88;0.28;;;;;;;7.44;100.00;98990.97;10461641;28;20126;-82
2024/01/02 05:11:15;;;;;;;0.10;0.10;;;;;;;7.53;100.00;98979.06;10404176;28;20465;-84
2024/01/02 05:16:16;;;;;;;0.00;0.00;;;;;;;7.60;100.00;98989.69;10401011;28;20045;-85
2024/01/02 05:21:17;;;;;;;0.10;0.10;;;;;;;7.73;100.00;98985.75;10440528;28;20125;-85
2024/01/02 05:26:17;;;;;;;0.68;0.20;;;;;;;7.72;100.00;98981.38;10402143;28;20049;-84
2024/01/02 05:31:18;;;;;;;1.80;0.17;;;;;;;7.80;100.00;98986.78;10445862;28;20054;-86
2024/01/02 05:36:18;;;;;;;0.50;0.20;;;;;;;7.93;100.00;98975.00;10494727;28;20045;-86
2024/01/02 05:41:19;;;;;;;0.13;0.10;;;;;;;7.98;100.00;98994.25;10458294;28;20071;-84
2024/01/02 05:46:20;;;;;;;0.17;0.17;;;;;;;8.01;100.00;98983.03;10435806;28;20041;-83
2024/01/02 05:51:20;;;;;;;0.22;0.17;;;;;;;8.08;100.00;98987.56;10445445;28;20136;-82
2024/01/02 05:56:21;;;;;;;0.77;0.22;;;;;;;8.21;100.00;98984.44;10423967;28;20033;-83
2024/01/02 06:01:21;;;;;;;0.32;0.30;;;;;;;8.26;100.00;98983.69;10474100;28;20072;-82
2024/01/02 06:06:21;;;;;;;0.38;0.30;;;;;;;8.40;100.00;98990.16;10407532;28;20048;-84
2024/01/02 06:11:22;;;;;;;1.52;0.40;;;;;;;8.52;100.00;98987.03;10398110;28;20034;-84
2024/01/02 06:16:22;;;;;;;0.93;0.50;;;;;;;8.61;100.00;98994.19;10383428;28;20124;-82
2024/01/02 06:21:23;;;;;;;0.73;0.25;;;;;;;8.69;100.00;99008.31;10385214;28;20494;-83
2024/01/02 06:26:23;;;;;;;0.35;0.20;;;;;;;8.79;100.00;99010.31;10400981;28;20040;-81
2024/01/02 06:31:24;;;;;;;0.47;0.35;;;;;;;8.91;100.00;99019.28;10420744;28;20049;-81
2024/01/02 06:36:24;;;;;;;0.20;0.20;;;;;;;8.95;100.00;99035.06;10400393;28;20112;-81
2024/01/02 06:41:25;;;;;;;0.30;0.30;;;;;;;8.98;100.00;99022.94;10398652;28;20117;-82
2024/01/02 06:46:25;;;;;;;0.52;0.30;;;;;;;9.07;100.00;99012.72;10406168;28;20116;-81
2024/01/02 06:51:29;;;;;;;0.68;0.30;;;;;;;9.16;100.00;99020.78;10435853;28;20094;-82
2024/01/02 06:56:29;;;;;;;0.35;0.28;;;;;;;9.15;100.00;99031.16;10434281;28;20135;-82
2024/01/02 07:01:30;;;;;;;2.75;0.88;;;;;;;9.15;100.00;99036.38;10451786;28;20361;-82
2024/01/02 07:06:30;;;;;;;1.02;0.60;;;;;;;9.17;100.00;99047.72;10447903;28;20180;-84
2024/01/02 07:11:31;;;;;;;3.50;0.90;;;;;;;9.18;100.00;99047.78;10400174;28;20143;-82
2024/01/02 07:16:32;;;;;;;0.82;0.50;;;;;;;9.20;100.00;99055.63;10458497;28;20091;-82
2024/01/02 07:21:32;;;;;;;1.60;0.75;;;;;;;9.23;100.00;99069.66;10432754;28;20041;-82
2024/01/02 07:26:33;;;;;;;0.55;0.47;;;;;;;9.26;100.00;99074.06;10439146;28;20370;-84
2024/01/02 07:31:35;;;;;;;1.30;0.60;;;;;;;9.22;100.00;99088.78;10403805;28;20151;-83
2024/01/02 07:36:35;;;;;;;1.67;0.80;;;;;;;9.24;100.00;99086.19;10474687;28;20098;-79
2024/01/02 07:41:36;;;;;;;1.33;0.70;;;;;;;9.25;100.00;99095.78;10446012;28;20037;-84
2024/01/02 07:46:36;;;;;;;2.53;1.17;;;;;;;9.28;100.00;99116.75;10446631;28;20041;-85
2024/01/02 07:51:37;;;;;;;1.48;0.93;;;;;;;9.29;100.00;99121.13;10446405;28;20112;-84
2024/01/02 07:56:37;;;;;;;3.42;1.65;;;;;;;9.30;100.00;99122.03;10459951;28;20119;-83
2024/01/02 08:01:38;;;;;;;2.60;1.17;;;;;;;9.31;100.00;99110.75;10472689;28;20137;-83
2024/01/02 08:06:38;;;;;;;4.07;1.80;;;;;;;9.34;100.00;99118.63;10511325;28;20036;-85
2024/01/02 08:11:39;;;;;;;5.10;1.92;;;;;;;9.35;100.00;99121.28;10478982;28;20068;-84
2024/01/02 08:16:39;;;;;;;2.40;1.55;;;;;;;9.38;100.00;99128.31;10444030;28;20045;-82
2024/01/02 08:21:40;;;;;;;3.33;1.75;;;;;;;9.39;100.00;99125.72;10446330;28;20037;-84
2024/01/02 08:26:41;;;;;;;3.22;2.10;;;;;;;9.40;100.00;99134.47;10463682;28;20123;-85
2024/01/02 08:31:41;;;;;;;4.00;2.25;;;;;;;9.40;100.00;99135.31;10485617;28;20372;-85
2024/01/02 08:36:43;;;;;;;4.07;2.30;;;;;;;9.43;100.00;99136.25;10452822;28;20115;-83
2024/01/02 08:41:43;;;;;;;3.83;2.50;;;;;;;9.43;100.00;99131.03;10410789;28;20171;-84
2024/01/02 08:46:44;;;;;;;3.17;1.90;;;;;;;9.48;100.00;99130.31;10442398;28;20047;-85
2024/01/02 08:51:44;;;;;;;2.85;1.80;;;;;;;9.53;100.00;99128.69;10419372;28;20164;-84
2024/01/02 08:56:45;;;;;;;4.80;2.88;;;;;;;9.52;100.00;99133.84;10447294;28;20460;-86
2024/01/02 09:01:51;;;;;;;3.65;2.47;;;;;;;9.57;100.00;99128.75;10450200;28;20055;-84
2024/01/02 09:06:53;;;;;;;2.42;1.42;;;;;;;9.60;100.00;99121.00;10500449;28;20051;-83
2024/01/02 09:11:54;;;;;;;4.15;1.30;;;;;;;9.63;100.00;99119.31;10450636;28;20048;-84
2024/01/02 09:16:56;;;;;;;2.67;1.25;;;;;;;9.62;100.00;99117.56;10458338;28;20125;-83
2024/01/02 09:21:57;;;;;;;1.45;0.93;;;;;;;9.65;100.00;99101.97;10459593;28;20134;-82
2024/01/02 09:26:58;;;;;;;1.27;1.00;;;;;;;9.64;100.00;99091.50;10447364;28;20173;-81
2024/01/02 09:31:59;;;;;;;2.47;0.80;;;;;;;9.65;100.00;99095.88;10447700;28;20492;-82
2024/01/02 09:36:59;;;;;;;1.83;1.25;;;;;;;9.62;100.00;99090.56;10428900;28;20036;-82
2024/01/02 09:42:02;;;;;;;0.98;0.68;;;;;;;9.62;100.00;99078.38;10464285;28;20132;-82
2024/01/02 09:47:14;;;;;;;0.80;0.80;;;;;;;9.66;100.00;99069.75;10439027;28;20037;-82
2024/01/02 09:52:37;;;;;;;1.50;0.93;;;;;;;9.69;100.00;99066.34;10405478;28;20507;-83
2024/01/02 09:57:44;;;;;;;1.80;1.45;;;;;;;9.73;100.00;99060.34;10501117;28;20134;-81
2024/01/02 10:03:01;;;;;;;1.77;1.15;;;;;;;9.81;100.00;99052.66;10436182;28;20094;-82
2024/01/02 10:08:11;;;;;;;1.85;1.10;;;;;;;9.90;100.00;99046.75;10474576;28;20041;-81
2024/01/02 10:13:25;;;;;;;1.25;0.93;;;;;;;9.99;100.00;99039.97;10441591;28;20489;-83
2024/01/02 10:18:51;;;;;;;0.82;0.30;;;;;;;10.05;100.00;99034.03;10464951;28;20055;-82
2024/01/02 10:24:09;;;;;;;1.02;0.35;;;;;;;10.11;100.00;99022.78;10455669;28;20507;-82
2024/01/02 10:29:12;;;;;;;2.05;0.45;;;;;;;10.09;100.00;99016.66;10486123;28;20468;-79
2024/01/02 10:34:32;;;;;;;0.20;0.20;;;;;;;10.06;100.00;98995.69;10407129;28;20033;-81
2024/01/02 10:39:51;;;;;;;0.57;0.20;;;;;;;9.99;100.00;98974.66;10443858;28;20044;-81
2024/01/02 10:44:56;;;;;;;1.30;0.30;;;;;;;9.94;100.00;98957.13;10446632;28;20396;-79
2024/01/02 10:49:59;;;;;;;0.20;0.20;;;;;;;9.80;100.00;98959.47;10450476;28;20489;-81
2024/01/02 10:54:59;;;;;;;1.33;0.50;;;;;;;9.67;100.00;98934.84;10430505;28;20480;-81
2024/01/02 11:00:08;;;;;;;0.43;0.32;;;;;;;9.46;100.00;98923.09;10447574;28;20045;-81
2024/01/02 11:05:11;;;;;;;0.95;0.43;;;;;;;9.29;100.00;98925.34;10450200;28;20045;-80
2024/01/02 11:10:16;;;;;;;1.80;0.38;;;;;;;9.23;100.00;98936.53;10448203;28;20488;-81
2024/01/02 11:15:17;;;;;;;1.50;0.65;;;;;;;9.14;100.00;98918.06;10429832;28;20037;-81
2024/01/02 11:20:21;;;;;;;1.23;0.70;;;;;;;9.06;100.00;98920.47;10445981;28;20041;-80
2024/01/02 11:25:23;;;;;;;0.68;0.55;;;;;;;9.02;100.00;98925.63;10458626;28;20497;-81
2024/01/02 11:30:24;;;;;;;1.43;0.40;;;;;;;8.96;100.00;98919.41;10429407;28;20120;-80
2024/01/02 11:35:26;;;;;;;0.35;0.30;;;;;;;8.95;100.00;98919.34;10462392;28;20036;-80
2024/01/02 11:40:33;;;;;;;0.35;0.20;;;;;;;8.89;100.00;98903.56;10441760;28;20036;-80
2024/01/02 11:45:34;;;;;;;1.77;0.63;;;;;;;8.89;100.00;98890.53;10440650;28;20109;-80
2024/01/02 11:50:55;;;;;;;1.45;0.73;;;;;;;8.78;100.00;98874.66;10459389;28;20086;-79
2024/01/02 11:55:57;;;;;;;0.88;0.45;;;;;;;8.73;100.00;98874.53;10441528;28;20802;-80
2024/01/02 12:01:05;;;;;;;;;;;;;;;8.70;100.00;98863.16;10451566;28;20058;-78
2024/01/02 12:06:13;;;;;;;0.57;0.50;;;;;;;8.62;100.00;98845.59;10432595;28;20176;-80
2024/01/02 12:11:14;;;;;;;0.82;0.52;;;;;;;8.60;100.00;98836.88;10436833;28;20042;-80
2024/01/02 12:16:14;;;;;;;0.50;0.30;;;;;;;8.57;100.00;98823.75;10420867;28;20033;-76
2024/01/02 12:21:21;;;;;;;0.60;0.50;;;;;;;8.49;100.00;98807.91;10419111;28;20123;-78
2024/01/02 12:26:26;;;;;;;0.75;0.45;;;;;;;8.46;100.00;98812.16;10447963;28;20124;-78
2024/01/02 12:31:39;;;;;;;2.38;0.73;;;;;;;8.39;100.00;98803.31;10423557;28;21797;-80
2024/01/02 12:36:46;;;;;;;1.02;0.40;;;;;;;8.35;100.00;98767.59;10404666;28;20041;-81
2024/01/02 12:41:51;;;;;;;0.85;0.30;;;;;;;8.35;100.00;98751.94;10425777;28;20036;-79
2024/01/02 12:47:08;;;;;;;3.10;0.70;;;;;;;8.30;100.00;98736.22;10416124;28;20041;-79
2024/01/02 12:52:11;;;;;;;0.65;0.40;;;;;;;8.27;100.00;98736.16;10421962;28;20053;-81
2024/01/02 12:57:11;;;;;;;0.40;0.20;;;;;;;8.22;100.00;98728.22;10460974;28;20036;-79
2024/01/02 13:02:12;;;;;;;1.27;0.82;;;;;;;8.23;100.00;98716.94;10465079;28;20124;-79
2024/01/02 13:07:12;;;;;;;0.73;0.30;;;;;;;8.21;100.00;98692.56;10439260;28;20057;-80
2024/01/02 13:12:13;;;;;;;0.43;0.35;;;;;;;8.21;100.00;98694.31;10417734;28;20489;-79
2024/01/02 13:17:14;;;;;;;0.77;0.30;;;;;;;8.25;100.00;98677.00;10418828;28;20128;-80
2024/01/02 13:22:23;;;;;;;1.38;0.20;;;;;;;8.27;100.00;98668.41;10441047;28;20098;-79
2024/01/02 13:27:27;;;;;;;0.32;0.25;;;;;;;8.30;100.00;98655.44;10430520;28;20443;-77
2024/01/02 13:32:30;;;;;;;1.25;0.50;;;;;;;8.35;100.00;98656.41;10383233;28;20040;-79
2024/01/02 13:37:33;;;;;;;0.95;0.28;;;;;;;8.36;100.00;98652.06;10397877;28;20481;-80
2024/01/02 13:42:36;;;;;;;1.95;0.22;;;;;;;8.38;100.00;98637.31;10442833;28;20037;-79
2024/01/02 13:47:36;;;;;;;1.48;0.65;;;;;;;8.45;100.00;98620.09;10444732;28;20119;-79
2024/01/02 13:52:38;;;;;;;5.15;2.22;;;;;;;8.51;100.00;98631.53;10418462;28;20028;-80
2024/01/02 13:57:39;;;;;;;1.35;0.90;;;;;;;8.58;100.00;98613.41;10469833;28;20041;-78
2024/01/02 14:02:46;;;;;;;0.88;0.32;;;;;;;8.60;100.00;98610.00;10452145;28;20041;-80
2024/01/02 14:07:47;;;;;;;0.22;0.22;;;;;;;8.60;100.00;98596.06;10437338;28;20060;-78
2024/01/02 14:12:50;;;;;;;1.33;0.30;;;;;;;8.60;100.00;98591.75;10454410;28;20119;-77
2024/01/02 14:18:15;;;;;;;0.22;0.22;;;;;;;8.60;100.00;98572.59;10438580;28;20124;-77
2024/01/02 14:23:42;;;;;;;1.85;0.45;;;;;;;8.58;100.00;98554.34;10414368;28;20038;-78
2024/01/02 14:28:52;;;;;;;0.25;0.20;;;;;;;8.63;100.00;98549.19;10413212;28;20048;-78
2024/01/02 14:34:22;;;;;;;1.05;0.40;;;;;;;8.70;100.00;98540.63;10470306;28;20049;-78
2024/01/02 14:39:49;;;;;;;0.45;0.45;;;;;;;8.73;100.00;98530.25;10443410;28;20124;-77
2024/01/02 14:45:09;;;;;;;2.83;0.55;;;;;;;8.78;100.00;98518.16;10414970;28;20041;-78
2024/01/02 14:50:44;;;;;;;0.98;0.25;;;;;;;8.75;100.00;98496.41;10439546;28;20048;-77
2024/01/02 14:56:26;;;;;;;0.82;0.28;;;;;;;8.70;100.00;98477.19;10420377;28;20045;-77
2024/01/02 15:01:30;;;;;;;0.22;0.22;;;;;;;8.64;100.00;98464.91;10408856;28;20152;-77
2024/01/02 15:06:35;;;;;;;0.30;0.30;;;;;;;8.64;100.00;98459.69;10446795;28;20488;-77
2024/01/02 15:12:09;;;;;;;2.08;0.93;;;;;;;8.62;100.00;98466.59;10426674;28;20131;-78
2024/01/02 15:17:25;;;;;;;2.25;0.90;;;;;;;8.59;100.00;98456.13;10429462;28;20476;-78
2024/01/02 15:23:05;;;;;;;4.07;0.55;;;;;;;8.56;100.00;98450.88;10448922;28;20124;-78
2024/01/02 15:28:12;;;;;;;1.00;0.63;;;;;;;8.54;100.00;98413.47;10423367;28;20499;-77
2024/01/02 15:33:45;;;;;;;0.80;0.47;;;;;;;8.48;100.00;98401.19;10427272;28;20034;-79
2024/01/02 15:39:10;;;;;;;1.58;0.73;;;;;;;8.50;100.00;98389.09;10425767;28;20040;-79
2024/01/02 15:44:34;;;;;;;1.23;0.60;;;;;;;8.45;100.00;98378.53;10405390;28;20041;-79
2024/01/02 15:55:09;;;;;;;1.65;0.73;;;;;;;8.45;100.00;98369.84;10434881;28;20037;-78
2024/01/02 16:00:11;;;;;;;0.73;0.50;;;;;;;8.44;100.00;98355.94;10484995;28;20033;-77
2024/01/02 16:05:14;;;;;;;;;;;;;;;8.49;100.00;98345.63;10418147;28;20040;-78
2024/01/02 16:10:53;;;;;;;3.05;1.00;;;;;;;8.47;100.00;98331.66;10434120;28;19970;-78
2024/01/02 16:16:28;;;;;;;1.83;0.70;;;;;;;8.46;100.00;98322.09;10436719;28;20041;-80
2024/01/02 16:21:51;;;;;;;1.48;0.63;;;;;;;8.47;100.00;98318.63;10444168;28;20132;-79
2024/01/02 16:27:28;;;;;;;0.90;0.75;;;;;;;8.52;100.00;98322.22;10470574;28;20045;-80
2024/01/02 16:32:31;;;;;;;1.00;0.50;;;;;;;8.53;100.00;98318.75;10473377;28;20522;-80
2024/01/02 16:37:44;;;;;;;1.75;0.73;;;;;;;8.51;100.00;98305.66;10429061;28;20065;-79
2024/01/02 16:42:45;;;;;;;0.20;0.20;;;;;;;8.52;100.00;98319.59;10457857;28;20044;-80
2024/01/02 16:47:45;;;;;;;0.32;0.32;;;;;;;8.50;100.00;98287.41;10447580;28;20108;-80
2024/01/02 16:52:46;;;;;;;0.82;0.63;;;;;;;8.50;100.00;98290.88;10444947;28;20447;-79
2024/01/02 16:57:46;;;;;;;2.70;0.30;;;;;;;8.55;100.00;98288.34;10459072;28;20087;-79
2024/01/02 17:02:47;;;;;;;1.40;0.40;;;;;;;8.57;100.00;98268.41;10428147;28;20061;-79
2024/01/02 17:07:51;;;;;;;0.20;0.20;;;;;;;8.55;100.00;98269.22;10500951;28;20484;-80
2024/01/02 17:12:51;;;;;;;8.27;0.55;;;;;;;8.65;100.00;98265.88;10415041;28;20033;-78
2024/01/02 17:17:52;;;;;;;0.30;0.20;;;;;;;8.70;100.00;98245.09;10392275;28;20041;-78
2024/01/02 17:22:53;;;;;;;3.85;0.60;;;;;;;8.70;100.00;98247.72;10417109;28;20128;-80
2024/01/02 17:27:53;;;;;;;1.35;0.50;;;;;;;8.70;100.00;98247.72;10450942;28;20073;-79
2024/01/02 17:32:54;;;;;;;1.05;0.38;;;;;;;8.77;100.00;98255.63;10419136;28;20056;-81
2024/01/02 17:37:55;;;;;;;0.85;0.45;;;;;;;8.82;100.00;98242.66;10404709;28;20634;-79
2024/01/02 17:42:58;;;;;;;6.90;1.00;;;;;;;8.82;100.00;98234.81;10453631;28;20041;-80
2024/01/02 17:48:06;;;;;;;1.75;0.75;;;;;;;8.87;100.00;98250.50;10449258;28;20044;-80
2024/01/02 17:53:07;;;;;;;0.85;0.47;;;;;;;8.93;100.00;98230.63;10479401;28;20043;-79
2024/01/02 17:58:16;;;;;;;1.02;0.60;;;;;;;9.01;100.00;98233.31;10482024;28;20129;-79
2024/01/02 18:03:39;;;;;;;0.57;0.32;;;;;;;9.08;100.00;98244.69;10411683;28;20457;-78
2024/01/02 18:08:54;;;;;;;1.83;0.82;;;;;;;9.03;100.00;98222.91;10397430;28;20041;-79
2024/01/02 18:14:21;;;;;;;1.00;0.70;;;;;;;9.07;100.00;98214.25;10469972;28;20037;-78
2024/01/02 18:19:46;;;;;;;1.27;0.50;;;;;;;9.31;100.00;98223.19;10480443;28;20071;-79
2024/01/02 18:25:11;;;;;;;1.73;0.85;;;;;;;9.38;100.00;98218.03;10416071;28;20041;-79
2024/01/02 18:30:38;;;;;;;3.47;0.95;;;;;;;9.43;100.00;98206.75;10416283;28;20047;-80
2024/01/02 18:35:51;;;;;;;2.65;0.75;;;;;;;9.50;100.00;98213.78;10418154;28;20037;-80
2024/01/02 18:41:06;;;;;;;1.52;0.70;;;;;;;9.63;100.00;98217.41;10449453;28;20049;-79
2024/01/02 18:46:09;;;;;;;4.38;3.13;;;;;;;9.64;100.00;98203.50;10451521;28;20041;-79
2024/01/02 18:51:26;;;;;;;1.58;0.70;;;;;;;9.48;100.00;98145.03;10412497;28;20145;-81
2024/01/02 18:56:27;;;;;;;4.35;1.85;;;;;;;9.57;100.00;98186.03;10411184;28;20048;-81
2024/01/02 19:01:29;;;;;;;8.20;1.77;;;;;;;9.65;100.00;98166.06;10428930;28;20155;-82
2024/01/02 19:06:30;;;;;;;;;;;;;;;9.88;100.00;98150.56;10463912;28;20048;-81
2024/01/02 19:11:31;;;;;;;8.38;1.70;;;;;;;9.90;100.00;98137.50;10429248;28;19968;-82
2024/01/02 19:16:31;;;;;;;4.32;1.23;;;;;;;9.96;100.00;98106.19;10487913;28;20463;-83
2024/01/02 19:21:32;;;;;;;6.18;2.53;;;;;;;10.03;100.00;98066.16;10457007;28;20127;-80
2024/01/02 19:26:37;;;;;;;5.93;2.25;;;;;;;9.90;100.00;98065.22;10487721;28;20043;-81
2024/01/02 19:31:37;;;;;;;5.60;1.48;;;;;;;9.66;100.00;98066.81;10428239;28;20036;-80
2024/01/02 19:36:39;;;;;;;3.33;1.48;;;;;;;9.61;100.00;98084.19;10486245;28;20060;-79
2024/01/02 19:41:40;;;;;;;2.75;1.10;;;;;;;9.65;100.00;98091.19;10472903;28;20385;-80
2024/01/02 19:46:41;;;;;;;7.35;2.65;;;;;;;9.80;100.00;98090.44;10364572;28;20121;-82
2024/01/02 19:51:43;;;;;;;9.40;2.55;;;;;;;9.69;100.00;98113.84;10369397;28;20117;-82
2024/01/02 19:56:43;;;;;;;6.30;1.75;;;;;;;9.78;100.00;98120.91;10460874;28;20041;-80
2024/01/02 20:01:44;;;;;;;8.48;2.75;;;;;;;9.94;100.00;98121.84;10444025;28;20043;-83
2024/01/02 20:06:58;;;;;;;5.70;2.50;;;;;;;10.14;100.00;98139.38;10363886;28;20045;-81
2024/01/02 20:11:59;;;;;;;4.45;2.53;;;;;;;10.19;100.00;98160.34;10466899;28;20098;-82
2024/01/02 20:17:02;;;;;;;5.88;2.35;;;;;;;10.24;100.00;98150.78;10459105;28;20164;-77
2024/01/02 20:22:03;;;;;;;5.90;2.15;;;;;;;10.23;100.00;98160.34;10457886;28;20040;-79
2024/01/02 20:27:28;;;;;;;7.55;2.78;;;;;;;10.25;100.00;98191.75;10459291;28;20033;-78
2024/01/02 20:32:30;;;;;;;13.00;2.65;;;;;;;10.16;100.00;98210.84;10474938;28;20097;-80
2024/01/02 20:37:38;;;;;;;6.88;2.65;;;;;;;10.06;100.00;98235.16;10427750;28;20045;-79
2024/01/02 20:42:38;;;;;;;11.65;2.00;;;;;;;10.02;100.00;98249.94;10457282;28;20033;-81
2024/01/02 20:47:43;;;;;;;5.25;1.83;;;;;;;9.96;100.00;98235.09;10444255;28;20033;-80
2024/01/02 20:52:43;;;;;;;4.30;1.88;;;;;;;9.90;100.00;98240.25;10458455;28;20421;-78
2024/01/02 20:57:44;;;;;;;6.70;3.40;;;;;;;9.81;100.00;98255.84;10455217;28;20131;-78
2024/01/02 21:02:45;;;;;;;4.82;1.77;;;;;;;9.73;100.00;98263.63;10446200;28;20146;-79
2024/01/02 21:07:45;;;;;;;8.60;2.45;;;;;;;9.75;100.00;98256.69;10419058;28;20045;-79
2024/01/02 21:12:45;;;;;;;7.63;2.97;;;;;;;9.70;100.00;98258.38;10441004;28;20120;-80
2024/01/02 21:17:47;;;;;;;9.50;3.17;;;;;;;9.77;100.00;98254.06;10444836;28;20136;-82
2024/01/02 21:23:03;;;;;;;12.63;2.37;;;;;;;9.69;100.00;98265.34;10444215;28;20445;-80
2024/01/02 21:28:07;;;;;;;5.13;1.88;;;;;;;9.61;100.00;98274.81;10448491;28;20111;-80
2024/01/02 21:33:09;;;;;;;7.60;2.80;;;;;;;9.67;100.00;98267.06;10420815;28;20044;-80
2024/01/02 21:38:10;;;;;;;10.65;3.45;;;;;;;9.76;100.00;98286.28;10428995;28;20039;-81
2024/01/02 21:43:27;;;;;;;11.88;4.38;;;;;;;9.76;100.00;98284.56;10429529;28;20116;-81
2024/01/02 21:48:35;;;;;;;15.30;4.57;;;;;;;9.89;100.00;98296.00;10391537;28;20044;-78
2024/01/02 21:53:36;;;;;;;11.00;3.75;;;;;;;9.83;100.00;98309.88;10422556;28;20048;-79
2024/01/02 21:58:38;;;;;;;16.92;3.03;;;;;;;9.88;100.00;98312.53;10392158;28;20036;-78
2024/01/02 22:03:51;;;;;;;9.32;3.22;;;;;;;9.90;100.00;98318.63;10406623;28;20048;-78
2024/01/02 22:08:55;;;;;;;8.88;3.42;;;;;;;9.94;100.00;98327.41;10405325;28;20080;-79
2024/01/02 22:14:05;;;;;;;8.68;2.78;;;;;;;10.02;100.00;98289.16;10385227;28;20049;-80
2024/01/02 22:19:14;;;;;;;10.27;5.50;;;;;;;10.05;100.00;98343.16;10399354;28;20041;-80
2024/01/02 22:24:44;;;;;;;15.23;3.60;;;;;;;9.93;100.00;98331.72;10404086;28;20051;-78
2024/01/02 22:29:45;;;;;;;7.68;3.72;;;;;;;9.88;100.00;98336.03;10397343;28;20548;-79
2024/01/02 22:34:45;;;;;;;9.82;3.55;;;;;;;9.82;100.00;98343.81;10345034;28;20079;-78
2024/01/02 22:39:49;;;;;;;11.43;3.70;;;;;;;9.88;100.00;98375.22;10361318;28;20059;-79
2024/01/02 22:44:50;;;;;;;25.02;4.35;;;;;;;9.77;100.00;98351.63;10347920;28;20493;-78
2024/01/02 22:49:51;;;;;;;15.07;4.40;;;;;;;9.70;100.00;98368.94;10361775;28;20041;-80
2024/01/02 22:54:51;;;;;;;12.70;4.93;;;;;;;9.72;100.00;98381.16;10433870;28;20041;-79
2024/01/02 22:59:52;;;;;;;18.92;5.45;;;;;;;9.70;100.00;98375.91;10403028;28;20052;-79
2024/01/02 23:04:52;;;;;;;22.13;4.38;;;;;;;9.69;100.00;98403.75;10404086;28;20476;-80
2024/01/02 23:09:58;;;;;;;13.00;4.50;;;;;;;9.81;100.00;98392.59;10403322;28;20052;-80
2024/01/02 23:14:59;;;;;;;11.90;4.43;;;;;;;9.92;100.00;98416.19;10405343;28;20054;-81
2024/01/02 23:19:59;;;;;;;8.65;3.10;;;;;;;9.76;100.00;98424.72;10404577;28;20403;-80
2024/01/02 23:25:29;;;;;;;16.35;4.35;;;;;;;9.21;100.00;98418.84;10407495;28;20136;-80
2024/01/02 23:30:29;;;;;;;19.13;5.60;;;;;;;9.13;100.00;98430.91;10413656;28;20119;-79
2024/01/02 23:35:30;;;;;;;25.27;6.50;;;;;;;8.96;100.00;98441.06;10408824;28;20067;-81
2024/01/02 23:40:39;;;;;;;15.68;4.35;;;;;;;9.10;100.00;98436.94;10395813;28;20045;-80